Gaylord, MI

1:00 AM EDT on April 26, 2015 (GMT -0400)
GAYLORD ALPINE CENTER | | Change Station
CLOSE
Current Station
Personal Weather Station
Location: Gaylord, MI
Elevation: 1385 ft
Nearby Weather Stations

Elev 1385 ft 45.04 °N, 84.67 °W | Updated 10 minutes ago

Clear
Clear
37.0 °F
Feels Like 33 °F
N
4.7
Wind Variable Wind from WSW

Today
High -- | Low -- °F
--% Chance of Precip.
Yesterday
High -- | Low -- °F
Precip. -- in
6:36 AM 8:37 PM
First Quarter, 52% visible
Pressure 29.94 in
Visibility 10.0 miles
Clouds Clear
Windchill 33 °F
Dew Point 22 °F
Humidity 55%
Rainfall 0.00 in
Snow Depth Not available.
UV 0 out of 12
Pollen 9.40 out of 12
Air Quality Not available.
Flu Activity Regional
METAR KGLR 260453Z AUTO VRB03KT 10SM CLR 03/M06 A2991 RMK AO2 SLP139 T00281061 401111028

More Conditions Fewer Conditions

Pressure 29.94 in
Visibility 10.0 miles
Clouds Clear
Windchill 33 °F
Dew Point 22 °F
Humidity 55%
Rainfall 0.00 in
Snow Depth Not available.
UV 0 out of 12
Pollen 9.40 out of 12
Air Quality Not available.
Flu Activity Regional
METAR KGLR 260453Z AUTO VRB03KT 10SM CLR 03/M06 A2991 RMK AO2 SLP139 T00281061 401111028

More Conditions Fewer Conditions

The full scope of the disaster following a powerful 7.8-magnitude earthquake in Nepal may not come into view for days, but global charities are already sending emergency aid. Click to see how you can help.
Nowcast | as of 12:00 am EDT on April 26, 2015

At 1 am...partly cloudy. Temperature 34. North winds 5 mph. At 3 am...partly cloudy. Temperature 32. North winds 5 mph. At 5 am...partly cloudy. Temperature 31. Light winds. Partly cloudy.

×

10-Day Weather Forecast

Almanac

Astronomy

Apr. 26, 2015 Rise Set
Actual Time
Civil Twilight
Nautical Twilight
Astronomical Twilight
Moon
Length of Visible Light
Length of Day
Tomorrow will be .
, % of the Moon is Illuminated

Today's Extremes

State Highs State Lows

Community

WunderPhotos

Upload Photos

1,816,942 photos uploaded!

WunderBlogs® & News

Nearby

Air Quality

  Air Quality AQ Index Pollutant
Not available.

Snow Depth

Station Depth Elevation

Earthquake Activity

City Distance Mag. Time & Date
Minimum magnitude displayed is 2.5.

Coastal Water Temperatures

Place Temperature

Stations

Nearby Weather Stations

Station Location Temp. Windchill Dew Point Humidity Wind Precip. Elev Updated Type